FW2339 Weather Reports


Display with metric or nautical units.
time (UTC)temp
F
wind
direction
speed
MPH
gust
MPH
rain 1hr
in
rain 24hr
in
rain mn
in
humidity
%
barometer
mb
20210305074256 50 149 1.0 2.0 0.00 0.00 0.00 54 1019.2
20210305073756 50 117 1.0 2.0 0.00 0.00 0.00 54 1019.4
20210305073255 50 117 0.0 2.0 0.00 0.00 0.00 54 1019.5
20210305072853 50 117 1.0 2.0 0.00 0.00 0.00 54 1019.5
20210305072635 50 117 1.0 3.0 0.00 0.00 0.00 54 1019.5
20210305071820 50 117 2.0 3.0 0.00 0.00 0.00 53 1019.5
20210305071244 51 117 1.0 2.0 0.00 0.00 0.00 53 1019.7
20210305070748 51 117 2.0 3.0 0.00 0.00 0.00 53 1019.8
20210305070252 51 117 2.0 3.0 0.00 0.00 0.00 53 1019.8
20210305065919 52 117 2.0 3.0 0.00 0.00 0.00 52 1019.6
20210305065637 52 117 2.0 3.0 0.00 0.00 0.00 52 1019.5
20210305064756 53 117 2.0 3.0 0.00 0.00 0.00 52 1019.5
20210305064251 54 117 2.0 3.0 0.00 0.00 0.00 52 1019.5
20210305063740 54 117 1.0 3.0 0.00 0.00 0.00 52 1019.4
20210305063240 55 117 1.0 2.0 0.00 0.00 0.00 52 1019.5
20210305063047 55 117 1.0 2.0 0.00 0.00 0.00 52 1019.5
20210305062845 55 117 1.0 2.0 0.00 0.00 0.00 52 1019.3
20210305061858 56 117 1.0 3.0 0.00 0.00 0.00 52 1019.2
20210305061245 56 117 0.0 3.0 0.00 0.00 0.00 52 1019.2
20210305060738 56 117 1.0 3.0 0.00 0.00 0.00 52 1019.0
20210305060235 56 117 1.0 3.0 0.00 0.00 0.00 52 1018.8
20210305055915 56 117 2.0 3.0 0.00 0.00 0.00 51 1018.8
20210305055610 56 117 2.0 6.0 0.00 0.00 0.00 51 1018.7
20210305054731 57 116 3.0 6.0 0.00 0.00 0.00 51 1018.6
20210305054231 57 132 3.0 5.0 0.00 0.00 0.00 51 1018.7
20210305053732 57 130 2.0 7.0 0.00 0.00 0.00 51 1018.9
20210305053237 57 130 3.0 7.0 0.00 0.00 0.00 51 1019.1
20210305052839 57 123 3.0 7.0 0.00 0.00 0.00 51 1019.0
20210305052446 58 142 2.0 7.0 0.00 0.00 0.00 51 1019.0
20210305051732 58 142 1.0 3.0 0.00 0.00 0.00 51 1019.2
20210305051228 58 142 1.0 2.0 0.00 0.00 0.00 51 1019.3
20210305050726 58 142 2.0 3.0 0.00 0.00 0.00 51 1019.3
20210305050224 59 142 2.0 5.0 0.00 0.00 0.00 50 1019.3
20210305045854 59 142 3.0 5.0 0.00 0.00 0.00 50 1019.2
20210305045626 59 142 3.0 5.0 0.00 0.00 0.00 50 1019.3
20210305044735 59 162 3.0 5.0 0.00 0.00 0.00 50 1019.3
20210305044216 59 131 3.0 5.0 0.00 0.00 0.00 50 1019.3
20210305043731 59 152 3.0 5.0 0.00 0.00 0.00 50 1019.4
20210305043215 59 146 3.0 6.0 0.00 0.00 0.00 50 1019.5
20210305042956 60 128 2.0 6.0 0.00 0.00 0.00 50 1019.4
20210305042634 60 146 2.0 5.0 0.00 0.00 0.00 50 1019.5
20210305041711 60 176 2.0 5.0 0.00 0.00 0.00 50 1019.9
20210305041205 60 176 2.0 5.0 0.00 0.00 0.00 50 1019.7
20210305040705 60 137 2.0 5.0 0.00 0.00 0.00 50 1019.4
20210305040415 60 193 2.0 6.0 0.00 0.00 0.00 50 1019.8
20210305040144 60 147 2.0 6.0 0.00 0.00 0.00 50 1019.5
20210305035949 60 205 3.0 5.0 0.00 0.00 0.00 50 1019.7
20210305034850 60 169 3.0 7.0 0.00 0.00 0.00 49 1019.2
20210305034205 61 170 4.0 7.0 0.00 0.00 0.00 50 1019.4
20210305033707 61 211 4.0 8.0 0.00 0.00 0.00 50 1019.3
20210305033156 61 121 4.0 8.0 0.00 0.00 0.00 49 1018.7
20210305032751 61 109 3.0 8.0 0.00 0.00 0.00 49 1018.8
20210305032317 61 173 1.0 6.0 0.00 0.00 0.00 49 1019.7
20210305031659 62 154 1.0 6.0 0.00 0.00 0.00 49 1020.0
20210305031209 62 205 2.0 5.0 0.00 0.00 0.00 49 1019.9
20210305030659 62 205 2.0 5.0 0.00 0.00 0.00 49 1019.9
20210305030156 62 190 2.0 5.0 0.00 0.00 0.00 49 1019.7
20210305025951 62 201 3.0 12.0 0.00 0.00 0.00 49 1019.5
20210305025625 62 209 5.0 12.0 0.00 0.00 0.00 49 1019.1
20210305024654 62 194 7.0 15.0 0.00 0.00 0.00 49 1018.6
20210305024154 62 119 7.0 15.0 0.00 0.00 0.00 49 1017.9
20210305023655 61 117 8.0 14.0 0.00 0.00 0.00 48 1018.0
20210305023146 61 112 8.0 13.0 0.00 0.00 0.00 48 1018.0
20210305022920 60 140 8.0 12.0 0.00 0.00 0.00 48 1018.1
20210305022532 60 109 6.0 12.0 0.00 0.00 0.00 48 1018.5
20210305021704 61 101 3.0 8.0 0.00 0.00 0.00 47 1019.2
20210305021150 61 118 1.0 4.0 0.00 0.00 0.00 48 1020.0
20210305020706 61 132 0.0 2.0 0.00 0.00 0.00 48 1020.4
20210305020205 62 132 0.0 2.0 0.00 0.00 0.00 47 1020.3
20210305015927 62 132 1.0 3.0 0.00 0.00 0.00 47 1020.2
20210305015427 62 132 2.0 3.0 0.00 0.00 0.00 47 1020.1
20210305014644 62 132 1.0 2.0 0.00 0.00 0.00 47 1020.0
20210305014145 62 132 1.0 3.0 0.00 0.00 0.00 47 1019.9
20210305013644 62 132 2.0 3.0 0.00 0.00 0.00 47 1019.7
20210305013309 62 131 2.0 4.0 0.00 0.00 0.00 47 1019.5
20210305012924 62 127 2.0 4.0 0.00 0.00 0.00 47 1019.4
20210305012626 62 90 3.0 6.0 0.00 0.00 0.00 47 1019.3
20210305011633 62 129 3.0 6.0 0.00 0.00 0.00 47 1019.0
20210305011132 62 131 3.0 5.0 0.00 0.00 0.00 47 1019.1
20210305010632 63 126 3.0 5.0 0.00 0.00 0.00 47 1019.2
20210305010141 63 144 3.0 5.0 0.00 0.00 0.00 47 1019.5
20210305005850 63 144 3.0 5.0 0.00 0.00 0.00 47 1019.5
20210305005601 63 134 3.0 5.0 0.00 0.00 0.00 47 1019.5
20210305004631 64 129 2.0 4.0 0.00 0.00 0.00 47 1019.4
20210305004124 64 142 1.0 4.0 0.00 0.00 0.00 47 1019.4
20210305003625 64 142 1.0 2.0 0.00 0.00 0.00 47 1019.5
20210305003129 65 142 2.0 3.0 0.00 0.00 0.00 47 1019.5
20210305002837 65 142 2.0 3.0 0.00 0.00 0.00 47 1019.5
20210305002432 65 142 1.0 3.0 0.00 0.00 0.00 47 1019.5
20210305001626 66 142 0.0 3.0 0.00 0.00 0.00 47 1019.6
20210305001129 66 142 0.0 1.0 0.00 0.00 0.00 47 1019.8
20210305000734 66 142 0.0 2.0 0.00 0.00 0.00 47 1019.6
20210305000058 67 142 2.0 3.0 0.00 0.00 0.00 48 1019.5
20210304235712 67 142 3.0 7.0 0.00 0.00 0.00 48 1019.3
20210304234615 68 142 4.0 7.0 0.00 0.00 0.00 48 1019.2
20210304234119 68 141 3.0 6.0 0.00 0.00 0.00 48 1019.2
20210304233612 68 153 2.0 5.0 0.00 0.00 0.00 48 1019.4
20210304233227 68 163 1.0 4.0 0.00 0.00 0.00 48 1019.7
20210304233038 68 163 1.0 4.0 0.00 0.00 0.00 48 1019.7
20210304232647 68 163 2.0 5.0 0.00 0.00 0.00 48 1019.6
20210304231612 68 163 2.0 5.0 0.00 0.00 0.00 48 1019.5
20210304231106 69 165 2.0 5.0 0.00 0.00 0.00 49 1019.5
20210304230608 69 188 4.0 9.0 0.00 0.00 0.00 49 1019.6
20210304230200 69 146 4.0 9.0 0.00 0.00 0.00 49 1019.6
20210304230001 69 134 4.0 7.0 0.00 0.00 0.00 49 1019.6
20210304225437 69 197 5.0 11.0 0.00 0.00 0.00 49 1019.7
20210304224604 69 169 6.0 11.0 0.00 0.00 0.00 49 1019.7
20210304224106 69 143 6.0 11.0 0.00 0.00 0.00 49 1019.7
20210304223601 70 129 6.0 11.0 0.00 0.00 0.00 50 1019.8
20210304223205 70 173 4.0 10.0 0.00 0.00 0.00 50 1019.9
20210304222907 70 194 4.0 9.0 0.00 0.00 0.00 50 1020.1
20210304222354 70 187 6.0 14.0 0.00 0.00 0.00 50 1020.0
20210304221557 70 169 5.0 14.0 0.00 0.00 0.00 50 1020.1
20210304221102 70 243 4.0 10.0 0.00 0.00 0.00 48 1020.0
20210304220553 70 159 4.0 14.0 0.00 0.00 0.00 51 1020.2
20210304220226 70 201 5.0 14.0 0.00 0.00 0.00 51 1020.1
20210304220104 70 126 6.0 14.0 0.00 0.00 0.00 51 1020.2
20210304215734 70 148 6.0 14.0 0.00 0.00 0.00 51 1020.5
20210304214607 70 188 6.0 11.0 0.00 0.00 0.00 51 1020.4
20210304214115 70 164 7.0 12.0 0.00 0.00 0.00 50 1020.5
20210304213611 70 146 6.0 12.0 0.00 0.00 0.00 53 1020.6
20210304213055 70 134 5.0 10.0 0.00 0.00 0.00 52 1020.7
20210304212841 70 152 6.0 11.0 0.00 0.00 0.00 52 1020.8
20210304212352 70 155 5.0 11.0 0.00 0.00 0.00 53 1020.8
20210304211537 70 157 5.0 11.0 0.00 0.00 0.00 54 1020.8
20210304211040 70 153 6.0 12.0 0.00 0.00 0.00 53 1020.8
20210304210537 70 182 6.0 12.0 0.00 0.00 0.00 53 1021.0
20210304210040 69 143 5.0 10.0 0.00 0.00 0.00 55 1021.0
20210304205903 69 136 5.0 10.0 0.00 0.00 0.00 54 1021.1
20210304205521 69 146 5.0 10.0 0.00 0.00 0.00 54 1021.2
20210304204600 69 223 5.0 10.0 0.00 0.00 0.00 53 1021.2
20210304204041 69 155 6.0 11.0 0.00 0.00 0.00 56 1021.3
20210304203713 69 131 6.0 11.0 0.00 0.00 0.00 55 1021.3
20210304203411 69 151 5.0 10.0 0.00 0.00 0.00 56 1021.3
20210304203152 69 202 3.0 10.0 0.00 0.00 0.00 55 1021.3
20210304202812 69 190 4.0 11.0 0.00 0.00 0.00 57 1021.6
20210304201600 69 136 6.0 11.0 0.00 0.00 0.00 57 1021.7
20210304201029 69 144 4.0 11.0 0.00 0.00 0.00 57 1021.6
20210304200532 68 161 5.0 14.0 0.00 0.00 0.00 58 1021.8
20210304200301 69 140 6.0 14.0 0.00 0.00 0.00 58 1021.9
20210304200052 69 150 5.0 11.0 0.00 0.00 0.00 58 1021.7
20210304195353 68 189 6.0 11.0 0.00 0.00 0.00 54 1021.8
20210304194532 68 148 6.0 12.0 0.00 0.00 0.00 59 1022.0
20210304194032 68 125 4.0 12.0 0.00 0.00 0.00 60 1022.2
20210304193542 68 164 6.0 14.0 0.00 0.00 0.00 60 1022.2
20210304193202 68 213 5.0 14.0 0.00 0.00 0.00 59 1022.3
20210304193015 68 159 5.0 15.0 0.00 0.00 0.00 60 1022.3
20210304192420 67 156 7.0 15.0 0.00 0.00 0.00 61 1022.5
20210304191532 67 194 6.0 14.0 0.00 0.00 0.00 61 1022.4
20210304191041 67 130 5.0 12.0 0.00 0.00 0.00 62 1022.7
20210304190526 68 146 5.0 11.0 0.00 0.00 0.00 62 1023.0
20210304190120 67 205 5.0 10.0 0.00 0.00 0.00 58 1023.2
20210304185908 67 144 4.0 8.0 0.00 0.00 0.00 61 1023.4
20210304185348 67 182 4.0 9.0 0.00 0.00 0.00 57 1023.4
20210304184543 67 146 4.0 9.0 0.00 0.00 0.00 58 1023.7
20210304184033 67 213 5.0 10.0 0.00 0.00 0.00 59 1023.7
20210304183519 67 197 4.0 10.0 0.00 0.00 0.00 60 1023.7
20210304183042 67 198 4.0 8.0 0.00 0.00 0.00 65 1023.7
20210304182817 67 121 4.0 9.0 0.00 0.00 0.00 64 1023.8
20210304182239 67 167 4.0 9.0 0.00 0.00 0.00 65 1023.9
20210304181529 66 236 4.0 9.0 0.00 0.00 0.00 62 1024.0
20210304181030 66 213 4.0 11.0 0.00 0.00 0.00 63 1024.2
20210304180520 66 161 4.0 11.0 0.00 0.00 0.00 65 1024.4
20210304180159 66 178 4.0 11.0 0.00 0.00 0.00 66 1024.6
20210304175857 66 141 4.0 11.0 0.00 0.00 0.00 65 1024.7
20210304175143 65 164 6.0 10.0 0.00 0.00 0.00 61 1024.6
20210304174523 65 132 6.0 10.0 0.00 0.00 0.00 63 1024.5
20210304174025 65 153 5.0 9.0 0.00 0.00 0.00 63 1024.5
20210304173518 65 153 5.0 10.0 0.00 0.00 0.00 61 1024.7
20210304173010 64 259 6.0 12.0 0.00 0.00 0.00 64 1025.2
20210304172753 64 230 6.0 12.0 0.00 0.00 0.00 59 1025.2
20210304172216 64 217 5.0 12.0 0.00 0.00 0.00 60 1025.2
20210304171454 64 142 5.0 9.0 0.00 0.00 0.00 67 1025.1
20210304170957 64 182 5.0 10.0 0.00 0.00 0.00 62 1025.2
20210304170718 64 224 5.0 10.0 0.00 0.00 0.00 61 1025.1
20210304170346 63 213 5.0 10.0 0.00 0.00 0.00 67 1024.9
20210304170127 63 202 5.0 12.0 0.00 0.00 0.00 64 1024.9
20210304165606 63 170 7.0 12.0 0.00 0.00 0.00 67 1025.1
20210304164449 62 240 6.0 11.0 0.00 0.00 0.00 63 1025.2
20210304164041 62 212 4.0 10.0 0.00 0.00 0.00 66 1025.5
20210304163442 62 194 5.0 10.0 0.00 0.00 0.00 70 1025.5
20210304163412 61 189 4.0 7.0 0.00 0.00 0.00 69 1025.4
20210304163258 61 184 4.0 7.0 0.00 0.00 0.00 67 1025.4
20210304163047 60 183 4.0 7.0 0.00 0.00 0.00 70 1025.3
20210304161442 60 167 4.0 7.0 0.00 0.00 0.00 70 1025.5
20210304161052 59 207 5.0 9.0 0.00 0.00 0.00 70 1025.5
20210304160448 59 231 6.0 10.0 0.00 0.00 0.00 68 1025.5
20210304160226 58 223 5.0 10.0 0.00 0.00 0.00 70 1025.7
20210304160052 58 245 5.0 8.0 0.00 0.00 0.00 70 1025.7
20210304155447 58 248 4.0 7.0 0.00 0.00 0.00 71 1025.7
20210304154435 57 232 3.0 7.0 0.00 0.00 0.00 71 1025.6
20210304154029 56 195 3.0 5.0 0.00 0.00 0.00 72 1025.4
20210304153524 56 177 3.0 5.0 0.00 0.00 0.00 71 1025.3
20210304153237 55 232 3.0 5.0 0.00 0.00 0.00 71 1025.1
20210304153015 55 186 2.0 5.0 0.00 0.00 0.00 72 1025.2
20210304152651 54 194 2.0 5.0 0.00 0.00 0.00 71 1025.2
20210304151425 54 158 2.0 5.0 0.00 0.00 0.00 72 1025.0
20210304150924 53 159 2.0 4.0 0.00 0.00 0.00 72 1025.1
20210304150444 52 184 3.0 5.0 0.00 0.00 0.00 71 1025.3
20210304150155 52 198 3.0 5.0 0.00 0.00 0.00 71 1025.5
20210304150029 51 194 2.0 5.0 0.00 0.00 0.00 71 1025.6
20210304145344 51 170 2.0 5.0 0.00 0.00 0.00 71 1025.6
20210304144445 50 207 2.0 4.0 0.00 0.00 0.00 71 1025.7
20210304143923 50 207 2.0 4.0 0.00 0.00 0.00 71 1025.7
20210304143421 49 187 2.0 4.0 0.00 0.00 0.00 71 1025.7
20210304142917 49 225 2.0 4.0 0.00 0.00 0.00 72 1025.8
20210304142724 48 190 2.0 3.0 0.00 0.00 0.00 71 1025.6
20210304141925 47 134 1.0 3.0 0.00 0.00 0.00 71 1025.4
20210304141420 47 93 1.0 2.0 0.00 0.00 0.00 71 1025.4
20210304140914 46 93 1.0 2.0 0.00 0.00 0.00 71 1025.4
20210304140426 45 93 0.0 2.0 0.00 0.00 0.00 71 1025.2
20210304135910 44 93 0.0 0.0 0.00 0.00 0.00 71 1025.3
20210304135723 43 93 0.0 0.0 0.00 0.00 0.00 71 1025.3
20210304134906 42 92 0.0 0.0 0.00 0.00 0.00 71 1025.1
20210304134406 41 92 0.0 0.0 0.00 0.00 0.00 70 1025.0
20210304133906 40 92 0.0 0.0 0.00 0.00 0.00 70 1025.0
20210304133409 39 92 0.0 0.0 0.00 0.00 0.00 69 1025.1
20210304132854 38 92 0.0 0.0 0.00 0.00 0.00 69 1024.9
20210304132043 38 92 0.0 0.0 0.00 0.00 0.00 69 1024.7
20210304131400 38 92 0.0 0.0 0.00 0.00 0.00 68 1024.8
20210304130903 38 92 0.0 0.0 0.00 0.00 0.00 68 1024.9
20210304130424 38 92 0.0 0.0 0.00 0.00 0.00 68 1024.7
20210304125901 38 92 0.0 0.0 0.00 0.00 0.00 68 1024.6
20210304125644 38 92 0.0 0.0 0.00 0.00 0.00 68 1024.5
20210304124947 38 92 0.0 0.0 0.00 0.00 0.00 68 1024.5
20210304124354 38 92 0.0 0.0 0.00 0.00 0.00 68 1024.7
20210304123857 38 92 0.0 0.0 0.00 0.00 0.00 68 1024.7
20210304123354 38 92 0.0 0.0 0.00 0.00 0.00 68 1024.8
20210304123113 39 92 0.0 0.0 0.00 0.00 0.00 67 1024.9
20210304122037 39 92 0.0 0.0 0.00 0.00 0.00 67 1024.8
20210304121350 40 342 0.0 0.0 0.00 0.00 0.00 67 1024.9
20210304120853 40 342 0.0 0.0 0.00 0.00 0.00 68 1025.0
20210304120359 40 342 0.0 0.0 0.00 0.00 0.00 68 1024.9
20210304120148 40 342 0.0 0.0 0.00 0.00 0.00 68 1024.8
20210304115909 40 342 0.0 0.0 0.00 0.00 0.00 68 1024.8
20210304114850 39 342 0.0 0.0 0.00 0.00 0.00 68 1024.7
20210304114342 39 342 0.0 0.0 0.00 0.00 0.00 67 1024.5
20210304113841 38 342 0.0 0.0 0.00 0.00 0.00 67 1024.3
20210304113342 38 342 0.0 0.0 0.00 0.00 0.00 66 1024.2
20210304113036 38 342 0.0 0.0 0.00 0.00 0.00 66 1024.2
20210304112820 38 342 0.0 0.0 0.00 0.00 0.00 66 1024.1
20210304111936 38 342 0.0 0.0 0.00 0.00 0.00 66 1024.1
20210304111333 39 342 0.0 0.0 0.00 0.00 0.00 65 1024.1
20210304110834 39 342 0.0 0.0 0.00 0.00 0.00 65 1024.2
20210304110432 39 342 0.0 0.0 0.00 0.00 0.00 65 1024.2
20210304110244 39 342 0.0 0.0 0.00 0.00 0.00 65 1024.4
20210304105943 39 342 0.0 0.0 0.00 0.00 0.00 65 1024.3
20210304105124 39 342 0.0 0.0 0.00 0.00 0.00 65 1024.3
20210304104330 39 342 0.0 0.0 0.00 0.00 0.00 65 1024.3
20210304103826 39 342 0.0 0.0 0.00 0.00 0.00 65 1024.3
20210304103330 39 342 0.0 0.0 0.00 0.00 0.00 64 1024.3
20210304102839 39 342 0.0 0.0 0.00 0.00 0.00 64 1024.2
20210304102632 40 342 0.0 0.0 0.00 0.00 0.00 64 1024.1
20210304101834 40 342 0.0 0.0 0.00 0.00 0.00 64 1024.0
20210304101320 40 342 0.0 0.0 0.00 0.00 0.00 64 1024.1
20210304100817 40 342 0.0 0.0 0.00 0.00 0.00 64 1024.3
20210304100327 40 342 0.0 0.0 0.00 0.00 0.00 64 1024.2
20210304095919 40 342 0.0 0.0 0.00 0.00 0.00 64 1024.3
20210304095650 40 342 0.0 0.0 0.00 0.00 0.00 64 1024.2
20210304094847 40 342 0.0 0.0 0.00 0.00 0.00 64 1024.3
20210304094308 40 342 0.0 0.0 0.00 0.00 0.00 63 1024.2
20210304093929 41 342 0.0 0.0 0.00 0.00 0.00 63 1024.1
20210304093306 41 342 0.0 0.0 0.00 0.00 0.00 63 1024.3
20210304093045 41 342 0.0 0.0 0.00 0.00 0.00 63 1024.4
20210304092859 42 342 0.0 0.0 0.00 0.00 0.00 63 1024.2
20210304091911 42 342 0.0 0.0 0.00 0.00 0.00 63 1024.3
20210304091305 42 342 0.0 0.0 0.00 0.00 0.00 63 1024.2
20210304090751 42 342 0.0 0.0 0.00 0.00 0.00 63 1024.2
20210304090253 42 342 0.0 0.0 0.00 0.00 0.00 64 1024.2
20210304085848 42 342 0.0 0.0 0.00 0.00 0.00 63 1024.3
20210304085706 42 342 0.0 0.0 0.00 0.00 0.00 63 1024.3
20210304084834 42 342 0.0 0.0 0.00 0.00 0.00 63 1024.3
20210304084240 42 342 0.0 0.0 0.00 0.00 0.00 63 1024.1
20210304083741 41 342 0.0 0.0 0.00 0.00 0.00 63 1024.3
20210304083240 41 342 0.0 0.0 0.00 0.00 0.00 62 1024.4
20210304082851 41 342 0.0 0.0 0.00 0.00 0.00 62 1024.4
20210304082458 41 342 0.0 0.0 0.00 0.00 0.00 61 1024.5
20210304081737 41 342 0.0 0.0 0.00 0.00 0.00 61 1024.6
20210304081231 40 342 0.0 0.0 0.00 0.00 0.00 61 1024.7
20210304080734 40 342 0.0 0.0 0.00 0.00 0.00 61 1024.6
20210304080230 41 342 0.0 0.0 0.00 0.00 0.00 60 1024.7
20210304075728 41 342 0.0 0.0 0.00 0.00 0.00 60 1024.6
20210304075407 41 342 0.0 0.0 0.00 0.00 0.00 61 1024.5